createdAt,value
2019-01-16T00:00:32.768Z,18.93
2019-01-16T00:03:02.804Z,19.43
2019-01-16T00:05:35.822Z,18.30
2019-01-16T00:08:14.904Z,19.97
2019-01-16T00:10:54.076Z,19.47
2019-01-16T00:13:40.263Z,18.50
2019-01-16T00:16:13.575Z,18.90
2019-01-16T00:18:50.044Z,20.30
2019-01-16T00:21:26.504Z,18.63
2019-01-16T00:24:12.591Z,19.50
2019-01-16T00:26:51.611Z,19.30
2019-01-16T00:29:27.900Z,19.60
2019-01-16T00:32:10.199Z,19.17
2019-01-16T00:34:52.286Z,19.80
2019-01-16T00:37:24.998Z,19.47
2019-01-16T00:40:01.037Z,19.43
2019-01-16T00:42:34.257Z,20.47
2019-01-16T00:45:10.096Z,20.47
2019-01-16T00:47:43.377Z,20.60
2019-01-16T00:50:29.993Z,20.70
2019-01-16T00:53:00.038Z,21.30
2019-01-16T00:55:44.748Z,22.07
2019-01-16T00:58:14.876Z,22.03
2019-01-16T01:00:47.697Z,22.37
2019-01-16T01:03:29.874Z,23.07
2019-01-16T01:05:59.890Z,22.70
2019-01-16T01:08:33.266Z,24.17
2019-01-16T01:11:09.444Z,24.23
2019-01-16T01:13:42.839Z,24.90
2019-01-16T01:16:19.629Z,24.37
2019-01-16T01:18:55.884Z,23.73
2019-01-16T01:21:41.157Z,24.63
2019-01-16T01:24:14.249Z,24.30
2019-01-16T01:26:50.307Z,24.13
2019-01-16T01:29:29.646Z,23.47
2019-01-16T01:31:59.963Z,23.60
2019-01-16T01:34:33.361Z,24.30
2019-01-16T01:37:09.840Z,22.97
2019-01-16T01:39:40.263Z,22.57
2019-01-16T01:42:10.306Z,23.50
2019-01-16T01:44:40.325Z,23.93
2019-01-16T01:47:26.389Z,24.30
2019-01-16T01:50:01.953Z,23.13
2019-01-16T01:52:48.045Z,22.87
2019-01-16T01:55:18.084Z,22.70
2019-01-16T01:57:54.004Z,24.07
2019-01-16T02:00:42.583Z,23.23
2019-01-16T02:03:12.632Z,23.43
2019-01-16T02:05:59.184Z,23.10
2019-01-16T02:08:41.594Z,22.60
2019-01-16T02:11:17.852Z,23.30
2019-01-16T02:13:59.826Z,23.37
2019-01-16T02:16:45.028Z,24.00
2019-01-16T02:19:21.489Z,21.80
2019-01-16T02:22:00.225Z,24.23
2019-01-16T02:24:32.927Z,22.53
2019-01-16T02:27:11.895Z,22.73
2019-01-16T02:29:56.904Z,23.80
2019-01-16T02:32:26.952Z,22.67
2019-01-16T02:35:13.213Z,23.70
2019-01-16T02:37:59.341Z,20.77
2019-01-16T02:40:29.419Z,22.07
2019-01-16T02:42:59.441Z,21.93
2019-01-16T02:45:45.694Z,23.40
2019-01-16T02:48:31.827Z,22.97
2019-01-16T02:51:02.169Z,21.53
2019-01-16T02:53:47.600Z,22.33
2019-01-16T02:56:26.767Z,21.27
2019-01-16T02:59:08.886Z,22.60
2019-01-16T03:01:41.318Z,21.07
2019-01-16T03:04:20.479Z,21.40
2019-01-16T03:06:56.608Z,20.37
2019-01-16T03:09:26.653Z,19.40
2019-01-16T03:12:03.120Z,19.60
2019-01-16T03:14:41.909Z,20.53
2019-01-16T03:17:11.938Z,20.23
2019-01-16T03:19:44.818Z,19.17
2019-01-16T03:22:30.152Z,19.10
2019-01-16T03:25:06.430Z,21.20
2019-01-16T03:27:36.456Z,18.77
2019-01-16T03:30:09.805Z,19.20
2019-01-16T03:32:56.283Z,19.83
2019-01-16T03:35:26.320Z,18.67
2019-01-16T03:37:56.644Z,18.07
2019-01-16T03:40:26.973Z,17.73
2019-01-16T03:42:57.292Z,17.73
2019-01-16T03:45:30.384Z,18.40
2019-01-16T03:48:12.689Z,17.50
2019-01-16T03:50:58.999Z,17.87
2019-01-16T03:53:35.047Z,18.50
2019-01-16T03:56:10.804Z,17.97
2019-01-16T03:58:57.314Z,17.80
2019-01-16T04:01:30.277Z,17.27
2019-01-16T04:04:12.189Z,16.80
2019-01-16T04:06:42.238Z,15.57
2019-01-16T04:09:15.390Z,15.40
2019-01-16T04:11:55.142Z,15.87
2019-01-16T04:14:25.168Z,15.47
2019-01-16T04:16:58.142Z,15.50
2019-01-16T04:19:37.582Z,16.00
2019-01-16T04:22:10.364Z,15.83
2019-01-16T04:24:40.411Z,15.30
2019-01-16T04:27:19.307Z,14.30
2019-01-16T04:29:49.626Z,15.37
2019-01-16T04:32:22.069Z,14.20
2019-01-16T04:35:08.716Z,15.10
2019-01-16T04:37:38.743Z,14.63
2019-01-16T04:40:26.262Z,14.83
2019-01-16T04:43:02.028Z,14.93
2019-01-16T04:45:41.555Z,14.27
2019-01-16T04:48:23.657Z,13.80
2019-01-16T04:50:56.426Z,13.83
2019-01-16T04:53:29.833Z,14.93
2019-01-16T04:56:02.402Z,13.73
2019-01-16T04:58:35.205Z,14.37
2019-01-16T05:01:21.435Z,13.80
2019-01-16T05:03:51.485Z,13.33
2019-01-16T05:06:21.515Z,12.97
2019-01-16T05:08:51.847Z,13.20
2019-01-16T05:11:27.492Z,12.90
2019-01-16T05:14:03.561Z,12.97
2019-01-16T05:16:45.531Z,12.30
2019-01-16T05:19:15.574Z,11.90
2019-01-16T05:21:48.002Z,12.27
2019-01-16T05:24:21.247Z,12.00
2019-01-16T05:26:54.539Z,11.63
2019-01-16T05:29:36.742Z,12.13
2019-01-16T05:32:19.047Z,12.17
2019-01-16T05:35:05.212Z,11.70
2019-01-16T05:37:35.258Z,12.73
2019-01-16T05:40:09.384Z,12.50
2019-01-16T05:42:48.398Z,11.37
2019-01-16T05:45:24.247Z,11.60
2019-01-16T05:48:00.084Z,10.60
2019-01-16T05:50:42.265Z,11.93
2019-01-16T05:53:12.294Z,10.93
2019-01-16T05:55:51.540Z,12.30
2019-01-16T05:58:26.988Z,12.07
2019-01-16T06:01:13.507Z,12.50
2019-01-16T06:03:43.536Z,12.23
2019-01-16T06:06:16.454Z,12.00
2019-01-16T06:08:46.561Z,12.07
2019-01-16T06:11:19.277Z,12.63
2019-01-16T06:14:05.450Z,11.20
2019-01-16T06:16:35.476Z,12.00
2019-01-16T06:19:14.920Z,12.00
2019-01-16T06:21:54.098Z,11.60
2019-01-16T06:24:26.651Z,11.27
2019-01-16T06:26:59.865Z,12.43
2019-01-16T06:29:32.845Z,11.60
2019-01-16T06:32:17.635Z,11.70
2019-01-16T06:34:53.680Z,11.80
2019-01-16T06:37:33.117Z,11.80
2019-01-16T06:40:06.202Z,11.20
2019-01-16T06:42:36.249Z,11.83
2019-01-16T06:45:14.227Z,11.57
2019-01-16T06:47:50.418Z,11.23
2019-01-16T06:50:20.448Z,11.73
2019-01-16T06:53:02.711Z,12.33
2019-01-16T06:55:38.404Z,14.10
2019-01-16T06:58:10.854Z,11.50
2019-01-16T07:00:40.888Z,11.20
2019-01-16T07:03:11.185Z,11.30
2019-01-16T07:05:43.608Z,11.37
2019-01-16T07:08:19.196Z,10.87
2019-01-16T07:11:05.813Z,11.40
2019-01-16T07:13:38.592Z,10.60
2019-01-16T07:16:17.662Z,10.60
2019-01-16T07:19:03.845Z,11.23
2019-01-16T07:21:36.909Z,12.47
2019-01-16T07:24:19.007Z,11.67
2019-01-16T07:26:49.327Z,11.50
2019-01-16T07:29:25.045Z,11.77
2019-01-16T07:32:11.477Z,11.77
2019-01-16T07:34:44.260Z,10.90
2019-01-16T07:37:20.509Z,10.13
2019-01-16T07:40:07.341Z,10.40
2019-01-16T07:42:49.388Z,10.57
2019-01-16T07:45:37.857Z,10.57
2019-01-16T07:48:14.459Z,11.17
2019-01-16T07:50:47.448Z,26.97
2019-01-16T07:53:29.134Z,10.43
2019-01-16T07:56:02.015Z,11.57
2019-01-16T07:58:32.068Z,11.17
2019-01-16T08:01:02.116Z,12.27
2019-01-16T08:03:32.159Z,11.97
2019-01-16T08:06:02.189Z,12.57
2019-01-16T08:08:41.204Z,13.23
2019-01-16T08:11:20.358Z,11.30
2019-01-16T08:14:06.295Z,13.97
2019-01-16T08:16:39.092Z,11.63
2019-01-16T08:19:15.595Z,12.77
2019-01-16T08:22:01.881Z,13.03
2019-01-16T08:24:31.912Z,12.87
2019-01-16T08:27:07.972Z,15.20
2019-01-16T08:29:38.252Z,14.27
2019-01-16T08:32:23.582Z,12.87
2019-01-16T08:34:56.872Z,15.20
2019-01-16T08:37:45.314Z,15.33
2019-01-16T08:40:33.614Z,16.70
2019-01-16T08:43:06.657Z,16.53
2019-01-16T08:45:39.192Z,16.93
2019-01-16T08:48:25.326Z,15.20
2019-01-16T08:51:01.894Z,15.83
2019-01-16T08:53:40.845Z,17.10
2019-01-16T08:56:19.730Z,17.00
2019-01-16T08:59:05.882Z,15.77
2019-01-16T09:01:39.233Z,20.80
2019-01-16T09:04:21.842Z,17.80
2019-01-16T09:06:57.649Z,16.00
2019-01-16T09:09:27.685Z,17.70
2019-01-16T09:12:14.079Z,18.17
2019-01-16T09:14:46.857Z,16.67
2019-01-16T09:17:16.877Z,16.63
2019-01-16T09:19:47.248Z,16.03
2019-01-16T09:22:32.937Z,16.73
2019-01-16T09:25:05.481Z,16.63
2019-01-16T09:27:47.558Z,17.70
2019-01-16T09:30:20.522Z,16.47
2019-01-16T09:32:56.680Z,16.10
2019-01-16T09:35:36.052Z,17.90
2019-01-16T09:38:06.160Z,16.90
2019-01-16T09:40:51.487Z,16.57
2019-01-16T09:43:24.401Z,16.03
2019-01-16T09:45:54.461Z,15.40
2019-01-16T09:48:24.818Z,16.30
2019-01-16T09:50:54.867Z,16.73
2019-01-16T09:53:37.340Z,17.27
2019-01-16T09:56:07.696Z,15.63
2019-01-16T09:58:53.980Z,17.03
2019-01-16T10:01:24.103Z,16.70
2019-01-16T10:03:54.126Z,19.67
2019-01-16T10:06:24.433Z,18.20
2019-01-16T10:08:54.759Z,16.67
2019-01-16T10:11:40.134Z,16.93
2019-01-16T10:14:15.884Z,17.47
2019-01-16T10:16:54.610Z,18.73
2019-01-16T10:19:40.626Z,16.93
2019-01-16T10:22:22.626Z,17.83
2019-01-16T10:24:55.588Z,16.93
2019-01-16T10:27:40.503Z,18.20
2019-01-16T10:30:19.479Z,18.50
2019-01-16T10:32:49.498Z,18.43
2019-01-16T10:35:19.923Z,15.97
2019-01-16T10:38:05.035Z,19.07
2019-01-16T10:40:35.453Z,15.77
2019-01-16T10:43:22.030Z,15.77
2019-01-16T10:46:08.152Z,17.33
2019-01-16T10:48:49.703Z,16.20
2019-01-16T10:51:32.623Z,15.70
2019-01-16T10:54:18.212Z,16.73
2019-01-16T10:56:54.272Z,18.40
2019-01-16T10:59:27.156Z,17.27
2019-01-16T11:01:57.179Z,16.53
2019-01-16T11:04:29.880Z,16.77
2019-01-16T11:07:15.126Z,15.93
2019-01-16T11:09:48.324Z,15.20
2019-01-16T11:12:21.712Z,13.60
2019-01-16T11:15:07.429Z,16.90
2019-01-16T11:17:54.215Z,13.27
2019-01-16T11:20:24.257Z,16.83
2019-01-16T11:23:10.031Z,14.37
2019-01-16T11:25:42.523Z,14.30
2019-01-16T11:28:31.006Z,13.90
2019-01-16T11:31:16.423Z,14.40
2019-01-16T11:33:48.743Z,13.60
2019-01-16T11:36:24.375Z,18.53
2019-01-16T11:38:54.539Z,13.90
2019-01-16T11:41:24.893Z,14.83
2019-01-16T11:44:11.394Z,15.00
2019-01-16T11:46:44.784Z,14.67
2019-01-16T11:49:23.712Z,17.60
2019-01-16T11:52:02.747Z,15.00
2019-01-16T11:54:33.070Z,14.90
2019-01-16T11:57:03.095Z,13.87
2019-01-16T11:59:42.246Z,17.13
2019-01-16T12:02:12.546Z,13.83
2019-01-16T12:04:48.858Z,13.80
2019-01-16T12:07:33.560Z,16.80
2019-01-16T12:10:18.733Z,14.77
2019-01-16T12:13:05.460Z,15.07
2019-01-16T12:15:35.767Z,15.07
2019-01-16T12:18:15.194Z,14.13
2019-01-16T12:20:45.535Z,14.87
2019-01-16T12:23:30.706Z,17.40
2019-01-16T12:26:17.007Z,13.37
2019-01-16T12:28:53.017Z,14.47
2019-01-16T12:31:25.746Z,16.90
2019-01-16T12:33:56.083Z,13.20
2019-01-16T12:36:38.063Z,14.83
2019-01-16T12:39:22.110Z,14.57
2019-01-16T12:41:59.544Z,14.83
2019-01-16T12:44:32.591Z,13.67
2019-01-16T12:47:05.486Z,20.87
2019-01-16T12:49:36.213Z,15.97
2019-01-16T12:52:22.870Z,14.10
2019-01-16T12:55:02.183Z,13.50
2019-01-16T12:57:41.181Z,13.53
2019-01-16T13:00:14.428Z,16.33
2019-01-16T13:02:47.235Z,16.23
2019-01-16T13:05:17.745Z,18.77
2019-01-16T13:07:47.773Z,17.47
2019-01-16T13:10:18.255Z,17.47
2019-01-16T13:12:50.984Z,14.67
2019-01-16T13:15:21.439Z,15.80
2019-01-16T13:17:54.632Z,13.93
2019-01-16T13:20:24.657Z,19.70
2019-01-16T13:22:57.129Z,12.80
2019-01-16T13:25:27.163Z,12.97
2019-01-16T13:27:57.470Z,14.93
2019-01-16T13:30:33.230Z,16.07
2019-01-16T13:33:06.384Z,15.17
2019-01-16T13:35:51.370Z,13.90
2019-01-16T13:38:30.192Z,14.00
2019-01-16T13:41:06.365Z,13.00
2019-01-16T13:43:39.405Z,16.13
2019-01-16T13:46:21.459Z,18.03
2019-01-16T13:48:54.380Z,16.13
2019-01-16T13:51:27.435Z,14.10
2019-01-16T13:54:13.667Z,16.13
2019-01-16T13:56:44.053Z,13.20
2019-01-16T13:59:26.421Z,16.03
2019-01-16T14:02:05.473Z,13.37
2019-01-16T14:04:38.452Z,13.57
2019-01-16T14:07:08.501Z,14.40
2019-01-16T14:09:41.214Z,13.07
2019-01-16T14:12:17.327Z,15.17
2019-01-16T14:14:50.084Z,18.70
2019-01-16T14:17:22.897Z,13.10
2019-01-16T14:19:58.365Z,12.97
2019-01-16T14:22:28.666Z,15.33
2019-01-16T14:25:16.940Z,11.50
2019-01-16T14:27:59.734Z,14.67
2019-01-16T14:30:33.222Z,12.73
2019-01-16T14:33:03.266Z,11.70
2019-01-16T14:35:33.306Z,13.47
2019-01-16T14:38:18.386Z,12.60
2019-01-16T14:41:00.339Z,13.60
2019-01-16T14:43:30.864Z,12.20
2019-01-16T14:46:01.183Z,15.07
2019-01-16T14:48:31.294Z,11.80
2019-01-16T14:51:01.337Z,11.17
2019-01-16T14:53:37.480Z,11.70
2019-01-16T14:56:24.206Z,11.93
2019-01-16T14:58:57.688Z,17.30
2019-01-16T15:01:28.028Z,15.90
2019-01-16T15:04:04.165Z,10.80
2019-01-16T15:06:34.419Z,17.37
2019-01-16T15:09:13.427Z,11.80
2019-01-16T15:11:43.864Z,13.47
2019-01-16T15:14:16.929Z,10.80
2019-01-16T15:17:03.073Z,10.93
2019-01-16T15:19:33.130Z,11.50
2019-01-16T15:22:06.358Z,11.57
2019-01-16T15:24:34.916Z,15.67
2019-01-16T15:27:13.726Z,14.07
2019-01-16T15:29:47.046Z,12.20
2019-01-16T15:32:33.167Z,11.17
2019-01-16T15:35:05.927Z,12.93
2019-01-16T15:37:38.631Z,14.57
2019-01-16T15:40:27.390Z,13.07
2019-01-16T15:42:57.420Z,12.30
2019-01-16T15:45:36.876Z,13.23
2019-01-16T15:48:19.410Z,11.63
2019-01-16T15:51:08.988Z,12.30
2019-01-16T15:53:48.180Z,11.90
2019-01-16T15:56:34.320Z,11.60
2019-01-16T15:59:04.355Z,13.70
2019-01-16T16:01:37.099Z,10.73
2019-01-16T16:04:15.914Z,10.67
2019-01-16T16:06:48.569Z,10.33
2019-01-16T16:09:18.593Z,12.03
2019-01-16T16:11:48.719Z,10.57
2019-01-16T16:14:19.120Z,15.23
2019-01-16T16:16:51.945Z,10.63
2019-01-16T16:19:29.689Z,11.20
2019-01-16T16:22:09.620Z,11.83
2019-01-16T16:24:40.064Z,11.83
2019-01-16T16:27:26.367Z,11.30
2019-01-16T16:29:59.327Z,11.77
2019-01-16T16:32:29.394Z,13.70
2019-01-16T16:35:14.734Z,12.37
2019-01-16T16:38:03.018Z,11.93
2019-01-16T16:40:33.055Z,11.20
2019-01-16T16:43:06.034Z,11.73
2019-01-16T16:45:36.058Z,12.90
2019-01-16T16:48:15.556Z,12.30
2019-01-16T16:50:51.506Z,11.70
2019-01-16T16:53:30.400Z,12.30
2019-01-16T16:56:00.429Z,12.83
2019-01-16T16:58:46.332Z,12.40
2019-01-16T17:01:31.434Z,10.80
2019-01-16T17:04:17.561Z,13.73
2019-01-16T17:06:50.325Z,15.47
2019-01-16T17:09:20.358Z,12.33
2019-01-16T17:11:59.527Z,13.60
2019-01-16T17:14:32.245Z,11.70
2019-01-16T17:17:11.399Z,12.13
2019-01-16T17:19:53.417Z,13.33
2019-01-16T17:22:40.261Z,12.33
2019-01-16T17:25:23.339Z,14.60
2019-01-16T17:28:09.694Z,14.63
2019-01-16T17:30:39.894Z,12.57
2019-01-16T17:33:19.135Z,12.97
2019-01-16T17:35:54.655Z,12.60
2019-01-16T17:38:41.189Z,14.23
2019-01-16T17:41:16.957Z,13.60
2019-01-16T17:44:03.176Z,13.40
2019-01-16T17:46:39.122Z,11.60
2019-01-16T17:49:12.189Z,15.23
2019-01-16T17:51:42.237Z,12.47
2019-01-16T17:54:14.975Z,11.93
2019-01-16T17:56:48.140Z,12.67
2019-01-16T17:59:23.966Z,13.63
2019-01-16T18:01:54.071Z,17.10
2019-01-16T18:04:26.873Z,16.37
2019-01-16T18:07:08.998Z,14.00
2019-01-16T18:09:42.061Z,16.30
2019-01-16T18:12:18.086Z,14.13
2019-01-16T18:14:54.143Z,13.20
2019-01-16T18:17:26.577Z,13.93
2019-01-16T18:20:03.103Z,14.03
2019-01-16T18:22:45.421Z,14.07
2019-01-16T18:25:15.733Z,15.23
2019-01-16T18:27:45.806Z,16.53
2019-01-16T18:30:29.983Z,14.70
2019-01-16T18:33:02.663Z,13.67
2019-01-16T18:35:38.969Z,14.40
2019-01-16T18:38:27.175Z,19.37
2019-01-16T18:40:57.219Z,13.97
2019-01-16T18:43:27.252Z,15.63
2019-01-16T18:45:57.666Z,22.53
2019-01-16T18:48:36.590Z,14.10
2019-01-16T18:51:16.311Z,14.23
2019-01-16T18:53:55.300Z,20.30
2019-01-16T18:56:30.952Z,14.93
2019-01-16T18:59:10.152Z,15.23
2019-01-16T19:01:57.994Z,13.97
2019-01-16T19:04:28.006Z,14.17
2019-01-16T19:07:01.019Z,15.17
2019-01-16T19:09:31.047Z,15.40
2019-01-16T19:12:04.233Z,14.67
2019-01-16T19:14:34.592Z,16.90
2019-01-16T19:17:16.924Z,13.87
2019-01-16T19:20:02.017Z,14.90
2019-01-16T19:22:35.070Z,13.93
2019-01-16T19:25:18.796Z,17.00
2019-01-16T19:27:56.970Z,16.73
2019-01-16T19:30:44.025Z,16.33
2019-01-16T19:33:23.446Z,14.83
2019-01-16T19:35:56.400Z,15.80
2019-01-16T19:38:41.447Z,17.67
2019-01-16T19:41:24.024Z,16.47
2019-01-16T19:43:54.239Z,19.10
2019-01-16T19:46:27.530Z,13.43
2019-01-16T19:49:06.324Z,15.87
2019-01-16T19:51:42.567Z,17.93
2019-01-16T19:54:29.544Z,15.03
2019-01-16T19:57:02.235Z,16.20
2019-01-16T19:59:38.136Z,16.17
2019-01-16T20:02:14.305Z,14.17
2019-01-16T20:04:50.084Z,16.63
2019-01-16T20:07:28.744Z,13.97
2019-01-16T20:09:58.801Z,13.67
2019-01-16T20:12:31.367Z,15.17
2019-01-16T20:15:16.369Z,16.10
2019-01-16T20:18:04.355Z,15.40
2019-01-16T20:20:46.532Z,14.50
2019-01-16T20:23:16.571Z,18.20
2019-01-16T20:25:49.381Z,20.50
2019-01-16T20:28:19.439Z,15.53
2019-01-16T20:30:55.540Z,16.90
2019-01-16T20:33:25.664Z,15.03
2019-01-16T20:35:55.818Z,14.87
2019-01-16T20:38:42.289Z,15.80
2019-01-16T20:41:12.383Z,16.80
2019-01-16T20:43:48.527Z,17.30
2019-01-16T20:46:26.121Z,19.57
2019-01-16T20:48:56.165Z,15.47
2019-01-16T20:51:26.199Z,19.77
2019-01-16T20:53:58.670Z,16.10
2019-01-16T20:56:28.765Z,17.23
2019-01-16T20:59:07.462Z,17.60
2019-01-16T21:01:49.540Z,17.20
2019-01-16T21:04:28.329Z,15.80
2019-01-16T21:07:05.101Z,16.80
2019-01-16T21:09:37.870Z,15.87
2019-01-16T21:12:07.988Z,14.50
2019-01-16T21:14:47.012Z,14.80
2019-01-16T21:17:19.692Z,15.40
2019-01-16T21:19:49.735Z,16.67
2019-01-16T21:22:35.846Z,17.30
2019-01-16T21:25:15.987Z,15.60
2019-01-16T21:27:58.265Z,20.53
2019-01-16T21:30:40.860Z,21.90
2019-01-16T21:33:27.671Z,16.03
2019-01-16T21:35:57.706Z,18.63
2019-01-16T21:38:37.219Z,16.20
2019-01-16T21:41:23.134Z,16.20
2019-01-16T21:43:55.876Z,16.10
2019-01-16T21:46:42.504Z,16.00
2019-01-16T21:49:15.489Z,16.67
2019-01-16T21:51:49.305Z,16.40
2019-01-16T21:54:34.024Z,16.10
2019-01-16T21:57:04.254Z,16.40
2019-01-16T21:59:34.298Z,16.53
2019-01-16T22:02:04.646Z,17.57
2019-01-16T22:04:35.056Z,16.37
2019-01-16T22:07:11.500Z,16.60
2019-01-16T22:09:44.086Z,23.30
2019-01-16T22:12:14.858Z,17.20
2019-01-16T22:14:44.874Z,16.73
2019-01-16T22:17:20.811Z,22.23
2019-01-16T22:19:51.137Z,17.20
2019-01-16T22:22:21.467Z,17.17
2019-01-16T22:24:51.890Z,19.20
2019-01-16T22:27:34.196Z,18.43
2019-01-16T22:30:07.486Z,16.53
2019-01-16T22:32:37.524Z,17.73
2019-01-16T22:35:23.632Z,18.20
2019-01-16T22:37:53.676Z,17.43
2019-01-16T22:40:26.906Z,20.80
2019-01-16T22:42:57.159Z,18.10
2019-01-16T22:45:27.280Z,22.17
2019-01-16T22:48:12.439Z,18.87
2019-01-16T22:50:45.659Z,18.70
2019-01-16T22:53:24.612Z,19.60
2019-01-16T22:55:54.652Z,17.70
2019-01-16T22:58:27.789Z,19.03
2019-01-16T23:00:58.245Z,20.27
2019-01-16T23:03:44.530Z,21.80
2019-01-16T23:06:14.549Z,22.90
2019-01-16T23:08:44.854Z,20.50
2019-01-16T23:11:29.717Z,19.70
2019-01-16T23:13:59.762Z,22.33
2019-01-16T23:16:44.885Z,19.10
2019-01-16T23:19:15.210Z,21.63
2019-01-16T23:21:45.252Z,20.80
2019-01-16T23:24:18.308Z,19.20
2019-01-16T23:26:48.764Z,20.23
2019-01-16T23:29:18.876Z,23.67
2019-01-16T23:31:51.840Z,21.27
2019-01-16T23:34:38.034Z,21.40
2019-01-16T23:37:13.841Z,20.97
2019-01-16T23:39:49.848Z,21.47
2019-01-16T23:42:28.992Z,20.37
2019-01-16T23:45:04.721Z,20.27
2019-01-16T23:47:44.068Z,20.20
2019-01-16T23:50:20.128Z,22.53
2019-01-16T23:53:02.131Z,20.20
2019-01-16T23:55:35.111Z,21.70
2019-01-16T23:58:14.351Z,21.30
